sensor_id;sensor_type;location;lat;lon;timestamp;temperature;humidity
21259;DHT22;10787;53.364;-1.480;2023-08-06T00:00:28;11.20;1.00
21259;DHT22;10787;53.364;-1.480;2023-08-06T00:03:12;11.20;1.00
21259;DHT22;10787;53.364;-1.480;2023-08-06T00:05:57;11.20;1.00
21259;DHT22;10787;53.364;-1.480;2023-08-06T00:08:41;11.20;1.00
21259;DHT22;10787;53.364;-1.480;2023-08-06T00:11:25;11.20;1.00
21259;DHT22;10787;53.364;-1.480;2023-08-06T00:14:10;11.10;1.00
21259;DHT22;10787;53.364;-1.480;2023-08-06T00:16:54;11.10;1.00
21259;DHT22;10787;53.364;-1.480;2023-08-06T00:19:38;11.10;1.00
21259;DHT22;10787;53.364;-1.480;2023-08-06T00:22:22;11.10;1.00
21259;DHT22;10787;53.364;-1.480;2023-08-06T00:25:07;11.10;1.00
21259;DHT22;10787;53.364;-1.480;2023-08-06T00:27:51;11.10;1.00
21259;DHT22;10787;53.364;-1.480;2023-08-06T00:30:36;11.10;1.00
21259;DHT22;10787;53.364;-1.480;2023-08-06T00:33:21;11.10;1.00
21259;DHT22;10787;53.364;-1.480;2023-08-06T00:36:05;11.10;1.00
21259;DHT22;10787;53.364;-1.480;2023-08-06T00:38:49;11.10;1.00
21259;DHT22;10787;53.364;-1.480;2023-08-06T00:41:34;11.10;1.00
21259;DHT22;10787;53.364;-1.480;2023-08-06T00:44:18;11.10;1.00
21259;DHT22;10787;53.364;-1.480;2023-08-06T00:47:02;11.10;1.00
21259;DHT22;10787;53.364;-1.480;2023-08-06T00:49:47;11.00;1.00
21259;DHT22;10787;53.364;-1.480;2023-08-06T00:52:31;11.00;1.00
21259;DHT22;10787;53.364;-1.480;2023-08-06T00:55:16;11.00;1.00
21259;DHT22;10787;53.364;-1.480;2023-08-06T00:58:01;11.00;1.00
21259;DHT22;10787;53.364;-1.480;2023-08-06T01:00:45;10.90;1.00
21259;DHT22;10787;53.364;-1.480;2023-08-06T01:03:30;10.90;1.00
21259;DHT22;10787;53.364;-1.480;2023-08-06T01:06:15;10.90;1.00
21259;DHT22;10787;53.364;-1.480;2023-08-06T01:15:31;10.80;1.00
21259;DHT22;10787;53.364;-1.480;2023-08-06T01:18:16;10.80;1.00
21259;DHT22;10787;53.364;-1.480;2023-08-06T01:21:00;10.70;1.00
21259;DHT22;10787;53.364;-1.480;2023-08-06T01:23:45;10.70;1.00
21259;DHT22;10787;53.364;-1.480;2023-08-06T01:26:33;10.60;1.00
21259;DHT22;10787;53.364;-1.480;2023-08-06T01:29:28;10.60;16.10
21259;DHT22;10787;53.364;-1.480;2023-08-06T01:32:14;10.60;14.10
21259;DHT22;10787;53.364;-1.480;2023-08-06T01:35:00;10.60;30.60
21259;DHT22;10787;53.364;-1.480;2023-08-06T01:37:46;10.70;99.90
21259;DHT22;10787;53.364;-1.480;2023-08-06T01:40:31;10.70;99.90
21259;DHT22;10787;53.364;-1.480;2023-08-06T01:43:16;10.70;99.90
21259;DHT22;10787;53.364;-1.480;2023-08-06T01:46:01;10.60;99.90
21259;DHT22;10787;53.364;-1.480;2023-08-06T01:48:45;10.70;99.90
21259;DHT22;10787;53.364;-1.480;2023-08-06T01:51:29;10.60;99.90
21259;DHT22;10787;53.364;-1.480;2023-08-06T01:54:13;10.70;99.90
21259;DHT22;10787;53.364;-1.480;2023-08-06T01:56:57;10.60;99.90
21259;DHT22;10787;53.364;-1.480;2023-08-06T01:59:42;10.60;99.90
21259;DHT22;10787;53.364;-1.480;2023-08-06T02:02:27;10.60;99.90
21259;DHT22;10787;53.364;-1.480;2023-08-06T02:05:11;10.60;99.90
21259;DHT22;10787;53.364;-1.480;2023-08-06T02:07:55;10.60;99.90
21259;DHT22;10787;53.364;-1.480;2023-08-06T02:10:39;10.60;99.90
21259;DHT22;10787;53.364;-1.480;2023-08-06T02:13:24;10.60;99.90
21259;DHT22;10787;53.364;-1.480;2023-08-06T02:16:09;10.60;99.90
21259;DHT22;10787;53.364;-1.480;2023-08-06T02:18:53;10.60;99.90
21259;DHT22;10787;53.364;-1.480;2023-08-06T02:21:37;10.60;99.90
21259;DHT22;10787;53.364;-1.480;2023-08-06T02:24:21;10.60;99.90
21259;DHT22;10787;53.364;-1.480;2023-08-06T02:27:05;10.50;99.90
21259;DHT22;10787;53.364;-1.480;2023-08-06T02:29:50;10.40;99.90
21259;DHT22;10787;53.364;-1.480;2023-08-06T02:32:34;10.40;1.00
21259;DHT22;10787;53.364;-1.480;2023-08-06T02:35:19;10.30;1.00
21259;DHT22;10787;53.364;-1.480;2023-08-06T02:38:04;10.30;1.00
21259;DHT22;10787;53.364;-1.480;2023-08-06T02:40:48;10.30;1.00
21259;DHT22;10787;53.364;-1.480;2023-08-06T02:43:32;10.20;1.00
21259;DHT22;10787;53.364;-1.480;2023-08-06T02:46:17;10.20;1.00
21259;DHT22;10787;53.364;-1.480;2023-08-06T02:49:01;10.30;1.00
21259;DHT22;10787;53.364;-1.480;2023-08-06T02:51:45;10.30;1.00
21259;DHT22;10787;53.364;-1.480;2023-08-06T02:54:29;10.40;1.00
21259;DHT22;10787;53.364;-1.480;2023-08-06T02:57:13;10.40;1.00
21259;DHT22;10787;53.364;-1.480;2023-08-06T02:59:57;10.40;1.00
21259;DHT22;10787;53.364;-1.480;2023-08-06T03:02:41;10.40;1.00
21259;DHT22;10787;53.364;-1.480;2023-08-06T03:05:26;10.40;1.00
21259;DHT22;10787;53.364;-1.480;2023-08-06T03:08:10;10.30;1.00
21259;DHT22;10787;53.364;-1.480;2023-08-06T03:10:54;10.40;1.00
21259;DHT22;10787;53.364;-1.480;2023-08-06T03:13:38;10.40;99.90
21259;DHT22;10787;53.364;-1.480;2023-08-06T03:16:22;10.40;99.90
21259;DHT22;10787;53.364;-1.480;2023-08-06T03:19:06;10.40;99.90
21259;DHT22;10787;53.364;-1.480;2023-08-06T03:21:50;10.40;99.90
21259;DHT22;10787;53.364;-1.480;2023-08-06T03:24:34;10.40;99.90
21259;DHT22;10787;53.364;-1.480;2023-08-06T03:27:19;10.40;99.90
21259;DHT22;10787;53.364;-1.480;2023-08-06T03:30:03;10.40;99.90
21259;DHT22;10787;53.364;-1.480;2023-08-06T03:32:48;10.40;99.90
21259;DHT22;10787;53.364;-1.480;2023-08-06T03:35:32;10.40;99.90
21259;DHT22;10787;53.364;-1.480;2023-08-06T03:38:16;10.40;99.90
21259;DHT22;10787;53.364;-1.480;2023-08-06T03:41:00;10.40;99.90
21259;DHT22;10787;53.364;-1.480;2023-08-06T03:43:44;10.40;99.90
21259;DHT22;10787;53.364;-1.480;2023-08-06T03:46:28;10.40;99.90
21259;DHT22;10787;53.364;-1.480;2023-08-06T03:49:12;10.40;27.30
21259;DHT22;10787;53.364;-1.480;2023-08-06T03:51:57;10.40;14.00
21259;DHT22;10787;53.364;-1.480;2023-08-06T03:54:41;10.40;35.00
21259;DHT22;10787;53.364;-1.480;2023-08-06T03:57:27;10.40;1.00
21259;DHT22;10787;53.364;-1.480;2023-08-06T04:00:11;10.40;1.00
21259;DHT22;10787;53.364;-1.480;2023-08-06T04:02:56;10.40;1.00
21259;DHT22;10787;53.364;-1.480;2023-08-06T04:05:41;10.40;1.00
21259;DHT22;10787;53.364;-1.480;2023-08-06T04:08:25;10.40;1.00
21259;DHT22;10787;53.364;-1.480;2023-08-06T04:11:09;10.40;1.00
21259;DHT22;10787;53.364;-1.480;2023-08-06T04:13:53;10.50;1.00
21259;DHT22;10787;53.364;-1.480;2023-08-06T04:16:39;10.50;1.00
21259;DHT22;10787;53.364;-1.480;2023-08-06T04:19:23;10.60;1.00
21259;DHT22;10787;53.364;-1.480;2023-08-06T04:22:08;10.70;1.00
21259;DHT22;10787;53.364;-1.480;2023-08-06T04:24:52;10.70;1.00
21259;DHT22;10787;53.364;-1.480;2023-08-06T04:27:37;10.80;1.00
21259;DHT22;10787;53.364;-1.480;2023-08-06T04:30:25;10.80;1.00
21259;DHT22;10787;53.364;-1.480;2023-08-06T04:33:09;10.80;1.00
21259;DHT22;10787;53.364;-1.480;2023-08-06T04:35:54;10.90;1.00
21259;DHT22;10787;53.364;-1.480;2023-08-06T04:38:39;10.90;1.00
21259;DHT22;10787;53.364;-1.480;2023-08-06T04:41:28;10.90;1.00
21259;DHT22;10787;53.364;-1.480;2023-08-06T04:44:12;10.90;1.00
21259;DHT22;10787;53.364;-1.480;2023-08-06T04:46:56;11.00;1.00
21259;DHT22;10787;53.364;-1.480;2023-08-06T04:49:40;11.10;1.00
21259;DHT22;10787;53.364;-1.480;2023-08-06T04:52:24;11.10;1.00
21259;DHT22;10787;53.364;-1.480;2023-08-06T04:55:12;11.20;1.00
21259;DHT22;10787;53.364;-1.480;2023-08-06T04:57:56;11.30;1.00
21259;DHT22;10787;53.364;-1.480;2023-08-06T05:00:40;11.30;1.00
21259;DHT22;10787;53.364;-1.480;2023-08-06T05:03:24;11.40;1.00
21259;DHT22;10787;53.364;-1.480;2023-08-06T05:06:08;11.50;1.00
21259;DHT22;10787;53.364;-1.480;2023-08-06T05:08:52;11.50;1.00
21259;DHT22;10787;53.364;-1.480;2023-08-06T05:11:36;11.60;1.00
21259;DHT22;10787;53.364;-1.480;2023-08-06T05:14:20;11.60;1.00
21259;DHT22;10787;53.364;-1.480;2023-08-06T05:17:04;11.70;1.00
21259;DHT22;10787;53.364;-1.480;2023-08-06T05:19:49;11.70;1.00
21259;DHT22;10787;53.364;-1.480;2023-08-06T05:22:34;11.80;1.00
21259;DHT22;10787;53.364;-1.480;2023-08-06T05:25:18;11.80;99.90
21259;DHT22;10787;53.364;-1.480;2023-08-06T05:28:02;11.90;99.90
21259;DHT22;10787;53.364;-1.480;2023-08-06T05:30:47;11.90;99.90
21259;DHT22;10787;53.364;-1.480;2023-08-06T05:33:31;11.90;99.90
21259;DHT22;10787;53.364;-1.480;2023-08-06T05:36:15;12.00;99.90
21259;DHT22;10787;53.364;-1.480;2023-08-06T05:39:02;12.00;99.90
21259;DHT22;10787;53.364;-1.480;2023-08-06T05:41:46;12.10;99.90
21259;DHT22;10787;53.364;-1.480;2023-08-06T05:44:31;12.10;99.90
21259;DHT22;10787;53.364;-1.480;2023-08-06T05:47:15;12.20;99.90
21259;DHT22;10787;53.364;-1.480;2023-08-06T05:49:59;12.20;99.90
21259;DHT22;10787;53.364;-1.480;2023-08-06T05:52:43;12.30;99.90
21259;DHT22;10787;53.364;-1.480;2023-08-06T05:55:27;12.30;99.90
21259;DHT22;10787;53.364;-1.480;2023-08-06T05:58:11;12.40;99.90
21259;DHT22;10787;53.364;-1.480;2023-08-06T06:00:55;12.50;99.90
21259;DHT22;10787;53.364;-1.480;2023-08-06T06:03:39;12.50;99.90
21259;DHT22;10787;53.364;-1.480;2023-08-06T06:06:23;12.60;99.90
21259;DHT22;10787;53.364;-1.480;2023-08-06T06:09:07;12.60;99.90
21259;DHT22;10787;53.364;-1.480;2023-08-06T06:11:51;12.70;99.90
21259;DHT22;10787;53.364;-1.480;2023-08-06T06:14:36;12.80;99.90
21259;DHT22;10787;53.364;-1.480;2023-08-06T06:17:29;12.80;99.90
21259;DHT22;10787;53.364;-1.480;2023-08-06T06:20:13;12.90;99.90
21259;DHT22;10787;53.364;-1.480;2023-08-06T06:22:57;13.00;99.90
21259;DHT22;10787;53.364;-1.480;2023-08-06T06:25:50;13.00;99.90
21259;DHT22;10787;53.364;-1.480;2023-08-06T06:28:38;13.00;99.90
21259;DHT22;10787;53.364;-1.480;2023-08-06T06:31:22;13.10;99.90
21259;DHT22;10787;53.364;-1.480;2023-08-06T06:34:06;13.20;99.90
21259;DHT22;10787;53.364;-1.480;2023-08-06T06:36:50;13.30;99.90
21259;DHT22;10787;53.364;-1.480;2023-08-06T06:39:35;13.40;99.90
21259;DHT22;10787;53.364;-1.480;2023-08-06T06:42:19;13.40;99.90
21259;DHT22;10787;53.364;-1.480;2023-08-06T06:45:04;13.50;99.90
21259;DHT22;10787;53.364;-1.480;2023-08-06T06:47:48;13.70;99.90
21259;DHT22;10787;53.364;-1.480;2023-08-06T06:50:32;13.80;99.90
21259;DHT22;10787;53.364;-1.480;2023-08-06T06:53:16;14.00;99.90
21259;DHT22;10787;53.364;-1.480;2023-08-06T06:56:03;14.00;99.90
21259;DHT22;10787;53.364;-1.480;2023-08-06T06:58:47;14.20;99.90
21259;DHT22;10787;53.364;-1.480;2023-08-06T07:01:31;14.20;99.90
21259;DHT22;10787;53.364;-1.480;2023-08-06T07:04:15;14.30;99.90
21259;DHT22;10787;53.364;-1.480;2023-08-06T07:06:59;14.40;99.90
21259;DHT22;10787;53.364;-1.480;2023-08-06T07:09:44;14.50;99.90
21259;DHT22;10787;53.364;-1.480;2023-08-06T07:12:29;14.60;99.90
21259;DHT22;10787;53.364;-1.480;2023-08-06T07:15:13;14.70;99.90
21259;DHT22;10787;53.364;-1.480;2023-08-06T07:17:57;14.80;99.90
21259;DHT22;10787;53.364;-1.480;2023-08-06T07:20:42;14.80;99.90
21259;DHT22;10787;53.364;-1.480;2023-08-06T07:23:31;14.80;99.90
21259;DHT22;10787;53.364;-1.480;2023-08-06T07:26:16;14.80;99.90
21259;DHT22;10787;53.364;-1.480;2023-08-06T07:29:00;15.00;99.90
21259;DHT22;10787;53.364;-1.480;2023-08-06T07:31:45;15.00;99.90
21259;DHT22;10787;53.364;-1.480;2023-08-06T07:34:29;15.10;99.90
21259;DHT22;10787;53.364;-1.480;2023-08-06T07:37:14;15.20;99.90
21259;DHT22;10787;53.364;-1.480;2023-08-06T07:39:59;15.20;99.90
21259;DHT22;10787;53.364;-1.480;2023-08-06T07:42:42;15.20;99.90
21259;DHT22;10787;53.364;-1.480;2023-08-06T07:45:27;15.30;99.90
21259;DHT22;10787;53.364;-1.480;2023-08-06T07:48:11;15.30;99.90
21259;DHT22;10787;53.364;-1.480;2023-08-06T07:50:55;15.40;99.90
21259;DHT22;10787;53.364;-1.480;2023-08-06T07:53:40;15.50;99.90
21259;DHT22;10787;53.364;-1.480;2023-08-06T07:56:24;15.60;99.90
21259;DHT22;10787;53.364;-1.480;2023-08-06T07:59:09;15.70;99.90
21259;DHT22;10787;53.364;-1.480;2023-08-06T08:01:53;15.80;99.90
21259;DHT22;10787;53.364;-1.480;2023-08-06T08:04:37;15.90;99.90
21259;DHT22;10787;53.364;-1.480;2023-08-06T08:07:21;16.00;99.90
21259;DHT22;10787;53.364;-1.480;2023-08-06T08:10:06;16.20;99.90
21259;DHT22;10787;53.364;-1.480;2023-08-06T08:12:50;16.20;99.90
21259;DHT22;10787;53.364;-1.480;2023-08-06T08:15:35;16.20;99.90
21259;DHT22;10787;53.364;-1.480;2023-08-06T08:18:19;16.30;99.90
21259;DHT22;10787;53.364;-1.480;2023-08-06T08:21:04;16.20;99.90
21259;DHT22;10787;53.364;-1.480;2023-08-06T08:23:48;16.30;99.90
21259;DHT22;10787;53.364;-1.480;2023-08-06T08:26:32;16.40;99.90
21259;DHT22;10787;53.364;-1.480;2023-08-06T08:29:30;16.30;99.90
21259;DHT22;10787;53.364;-1.480;2023-08-06T08:32:15;16.40;99.90
21259;DHT22;10787;53.364;-1.480;2023-08-06T08:34:59;16.40;99.90
21259;DHT22;10787;53.364;-1.480;2023-08-06T08:37:44;16.50;99.90
21259;DHT22;10787;53.364;-1.480;2023-08-06T08:40:32;16.60;99.90
21259;DHT22;10787;53.364;-1.480;2023-08-06T08:43:17;16.60;99.90
21259;DHT22;10787;53.364;-1.480;2023-08-06T08:52:52;16.80;99.90
21259;DHT22;10787;53.364;-1.480;2023-08-06T08:55:37;17.00;99.90
21259;DHT22;10787;53.364;-1.480;2023-08-06T08:58:22;17.10;99.90
21259;DHT22;10787;53.364;-1.480;2023-08-06T09:01:07;17.30;99.90
21259;DHT22;10787;53.364;-1.480;2023-08-06T09:03:53;17.50;99.90
21259;DHT22;10787;53.364;-1.480;2023-08-06T09:06:38;17.70;99.90
21259;DHT22;10787;53.364;-1.480;2023-08-06T09:09:34;17.80;99.90
21259;DHT22;10787;53.364;-1.480;2023-08-06T09:12:22;17.80;99.90
21259;DHT22;10787;53.364;-1.480;2023-08-06T09:15:07;17.80;99.90
21259;DHT22;10787;53.364;-1.480;2023-08-06T09:17:54;17.70;99.90
21259;DHT22;10787;53.364;-1.480;2023-08-06T09:20:39;17.80;99.90
21259;DHT22;10787;53.364;-1.480;2023-08-06T09:23:31;17.90;99.90
21259;DHT22;10787;53.364;-1.480;2023-08-06T09:26:15;17.90;99.90
21259;DHT22;10787;53.364;-1.480;2023-08-06T09:29:00;18.00;99.90
21259;DHT22;10787;53.364;-1.480;2023-08-06T09:31:54;18.10;99.90
21259;DHT22;10787;53.364;-1.480;2023-08-06T09:35:04;18.30;99.90
21259;DHT22;10787;53.364;-1.480;2023-08-06T09:37:49;18.40;99.90
21259;DHT22;10787;53.364;-1.480;2023-08-06T09:40:37;18.40;99.90
21259;DHT22;10787;53.364;-1.480;2023-08-06T09:43:22;18.70;99.90
21259;DHT22;10787;53.364;-1.480;2023-08-06T09:46:28;18.90;99.90
21259;DHT22;10787;53.364;-1.480;2023-08-06T09:49:19;18.70;99.90
21259;DHT22;10787;53.364;-1.480;2023-08-06T09:52:04;18.80;99.90
21259;DHT22;10787;53.364;-1.480;2023-08-06T09:54:50;18.50;99.90
21259;DHT22;10787;53.364;-1.480;2023-08-06T09:57:34;18.60;99.90
21259;DHT22;10787;53.364;-1.480;2023-08-06T10:00:25;18.60;99.90
21259;DHT22;10787;53.364;-1.480;2023-08-06T10:03:15;18.60;99.90
21259;DHT22;10787;53.364;-1.480;2023-08-06T10:06:02;18.80;99.90
21259;DHT22;10787;53.364;-1.480;2023-08-06T10:08:50;18.70;99.90
21259;DHT22;10787;53.364;-1.480;2023-08-06T10:11:38;18.90;99.90
21259;DHT22;10787;53.364;-1.480;2023-08-06T10:14:26;19.00;99.90
21259;DHT22;10787;53.364;-1.480;2023-08-06T10:17:12;19.30;99.90
21259;DHT22;10787;53.364;-1.480;2023-08-06T10:19:59;19.30;99.90
21259;DHT22;10787;53.364;-1.480;2023-08-06T10:22:44;19.40;99.90
21259;DHT22;10787;53.364;-1.480;2023-08-06T10:25:33;19.50;99.90
21259;DHT22;10787;53.364;-1.480;2023-08-06T10:28:19;19.60;99.90
21259;DHT22;10787;53.364;-1.480;2023-08-06T10:31:06;19.50;99.90
21259;DHT22;10787;53.364;-1.480;2023-08-06T10:33:51;19.40;99.90
21259;DHT22;10787;53.364;-1.480;2023-08-06T10:36:41;19.60;99.90
21259;DHT22;10787;53.364;-1.480;2023-08-06T10:39:25;19.80;99.90
21259;DHT22;10787;53.364;-1.480;2023-08-06T10:42:20;20.00;99.90
21259;DHT22;10787;53.364;-1.480;2023-08-06T10:45:15;20.20;99.90
21259;DHT22;10787;53.364;-1.480;2023-08-06T10:48:00;20.10;99.90
21259;DHT22;10787;53.364;-1.480;2023-08-06T10:50:45;20.20;99.90
21259;DHT22;10787;53.364;-1.480;2023-08-06T10:53:30;19.90;99.90
21259;DHT22;10787;53.364;-1.480;2023-08-06T10:56:14;20.30;99.90
21259;DHT22;10787;53.364;-1.480;2023-08-06T10:58:59;20.40;99.90
21259;DHT22;10787;53.364;-1.480;2023-08-06T11:01:43;20.50;99.90
21259;DHT22;10787;53.364;-1.480;2023-08-06T11:04:31;20.70;99.90
21259;DHT22;10787;53.364;-1.480;2023-08-06T11:07:16;20.70;99.90
21259;DHT22;10787;53.364;-1.480;2023-08-06T11:10:05;20.90;99.90
21259;DHT22;10787;53.364;-1.480;2023-08-06T11:12:50;20.90;99.90
21259;DHT22;10787;53.364;-1.480;2023-08-06T11:15:35;20.90;99.90
21259;DHT22;10787;53.364;-1.480;2023-08-06T11:18:19;20.90;99.90
21259;DHT22;10787;53.364;-1.480;2023-08-06T11:21:03;21.00;99.90
21259;DHT22;10787;53.364;-1.480;2023-08-06T11:23:47;21.10;99.90
21259;DHT22;10787;53.364;-1.480;2023-08-06T11:26:32;21.30;99.90
21259;DHT22;10787;53.364;-1.480;2023-08-06T11:29:16;21.40;99.90
21259;DHT22;10787;53.364;-1.480;2023-08-06T11:32:05;21.50;99.90
21259;DHT22;10787;53.364;-1.480;2023-08-06T11:34:49;21.70;99.90
21259;DHT22;10787;53.364;-1.480;2023-08-06T11:37:34;21.80;99.90
21259;DHT22;10787;53.364;-1.480;2023-08-06T11:40:28;21.80;99.90
21259;DHT22;10787;53.364;-1.480;2023-08-06T11:43:14;21.80;99.90
21259;DHT22;10787;53.364;-1.480;2023-08-06T11:46:07;21.80;99.90
21259;DHT22;10787;53.364;-1.480;2023-08-06T11:48:56;21.70;99.90
21259;DHT22;10787;53.364;-1.480;2023-08-06T11:51:40;21.50;99.90
21259;DHT22;10787;53.364;-1.480;2023-08-06T11:54:31;22.00;99.90
21259;DHT22;10787;53.364;-1.480;2023-08-06T11:57:18;22.50;99.90
21259;DHT22;10787;53.364;-1.480;2023-08-06T12:00:10;22.70;99.90
21259;DHT22;10787;53.364;-1.480;2023-08-06T12:02:56;22.90;99.90
21259;DHT22;10787;53.364;-1.480;2023-08-06T12:05:40;23.40;99.90
21259;DHT22;10787;53.364;-1.480;2023-08-06T12:08:28;23.80;99.90
21259;DHT22;10787;53.364;-1.480;2023-08-06T12:11:12;24.30;99.90
21259;DHT22;10787;53.364;-1.480;2023-08-06T12:13:56;24.50;99.90
21259;DHT22;10787;53.364;-1.480;2023-08-06T12:16:41;24.00;99.90
21259;DHT22;10787;53.364;-1.480;2023-08-06T12:19:25;24.20;99.90
21259;DHT22;10787;53.364;-1.480;2023-08-06T12:22:10;24.20;99.90
21259;DHT22;10787;53.364;-1.480;2023-08-06T12:24:54;24.40;99.90
21259;DHT22;10787;53.364;-1.480;2023-08-06T12:27:40;24.60;99.90
21259;DHT22;10787;53.364;-1.480;2023-08-06T12:30:25;25.00;99.90
21259;DHT22;10787;53.364;-1.480;2023-08-06T12:33:09;25.30;99.90
21259;DHT22;10787;53.364;-1.480;2023-08-06T12:35:53;25.30;99.90
21259;DHT22;10787;53.364;-1.480;2023-08-06T12:38:38;25.90;99.90
21259;DHT22;10787;53.364;-1.480;2023-08-06T12:41:23;25.70;99.90
21259;DHT22;10787;53.364;-1.480;2023-08-06T12:44:07;25.00;99.90
21259;DHT22;10787;53.364;-1.480;2023-08-06T12:46:51;24.20;99.90
21259;DHT22;10787;53.364;-1.480;2023-08-06T12:49:36;24.00;99.90
21259;DHT22;10787;53.364;-1.480;2023-08-06T12:52:20;23.90;99.90
21259;DHT22;10787;53.364;-1.480;2023-08-06T12:55:05;23.70;99.90
21259;DHT22;10787;53.364;-1.480;2023-08-06T12:57:50;23.50;99.90
21259;DHT22;10787;53.364;-1.480;2023-08-06T13:00:34;23.10;99.90
21259;DHT22;10787;53.364;-1.480;2023-08-06T13:03:18;23.00;99.90
21259;DHT22;10787;53.364;-1.480;2023-08-06T13:06:03;22.70;99.90
21259;DHT22;10787;53.364;-1.480;2023-08-06T13:08:47;22.60;99.90
21259;DHT22;10787;53.364;-1.480;2023-08-06T13:11:32;22.60;99.90
21259;DHT22;10787;53.364;-1.480;2023-08-06T13:14:17;22.50;99.90
21259;DHT22;10787;53.364;-1.480;2023-08-06T13:17:01;22.50;99.90
21259;DHT22;10787;53.364;-1.480;2023-08-06T13:19:46;22.20;99.90
21259;DHT22;10787;53.364;-1.480;2023-08-06T13:22:30;22.00;99.90
21259;DHT22;10787;53.364;-1.480;2023-08-06T13:25:14;21.80;99.90
21259;DHT22;10787;53.364;-1.480;2023-08-06T13:28:00;21.50;99.90
21259;DHT22;10787;53.364;-1.480;2023-08-06T13:30:44;21.50;99.90
21259;DHT22;10787;53.364;-1.480;2023-08-06T13:33:28;22.40;99.90
21259;DHT22;10787;53.364;-1.480;2023-08-06T13:36:12;23.60;99.90
21259;DHT22;10787;53.364;-1.480;2023-08-06T13:38:56;23.70;99.90
21259;DHT22;10787;53.364;-1.480;2023-08-06T13:41:41;23.20;99.90
21259;DHT22;10787;53.364;-1.480;2023-08-06T13:44:25;22.70;99.90
21259;DHT22;10787;53.364;-1.480;2023-08-06T13:47:10;22.30;99.90
21259;DHT22;10787;53.364;-1.480;2023-08-06T13:49:54;21.90;99.90
21259;DHT22;10787;53.364;-1.480;2023-08-06T13:52:39;21.50;99.90
21259;DHT22;10787;53.364;-1.480;2023-08-06T13:55:23;21.00;99.90
21259;DHT22;10787;53.364;-1.480;2023-08-06T13:58:26;20.70;99.90
21259;DHT22;10787;53.364;-1.480;2023-08-06T14:01:13;20.30;99.90
21259;DHT22;10787;53.364;-1.480;2023-08-06T14:03:57;20.00;99.90
21259;DHT22;10787;53.364;-1.480;2023-08-06T14:06:42;19.90;99.90
21259;DHT22;10787;53.364;-1.480;2023-08-06T14:09:26;20.50;99.90
21259;DHT22;10787;53.364;-1.480;2023-08-06T14:12:10;21.60;99.90
21259;DHT22;10787;53.364;-1.480;2023-08-06T14:14:55;22.10;99.90
21259;DHT22;10787;53.364;-1.480;2023-08-06T14:17:40;22.20;99.90
21259;DHT22;10787;53.364;-1.480;2023-08-06T14:20:24;21.90;99.90
21259;DHT22;10787;53.364;-1.480;2023-08-06T14:23:09;21.60;99.90
21259;DHT22;10787;53.364;-1.480;2023-08-06T14:25:53;21.10;99.90
21259;DHT22;10787;53.364;-1.480;2023-08-06T14:28:37;20.60;99.90
21259;DHT22;10787;53.364;-1.480;2023-08-06T14:31:21;20.20;99.90
21259;DHT22;10787;53.364;-1.480;2023-08-06T14:34:06;20.00;99.90
21259;DHT22;10787;53.364;-1.480;2023-08-06T14:36:50;19.90;99.90
21259;DHT22;10787;53.364;-1.480;2023-08-06T14:39:34;19.80;99.90
21259;DHT22;10787;53.364;-1.480;2023-08-06T14:42:19;19.80;99.90
21259;DHT22;10787;53.364;-1.480;2023-08-06T14:45:03;19.80;99.90
21259;DHT22;10787;53.364;-1.480;2023-08-06T14:47:48;19.80;99.90
21259;DHT22;10787;53.364;-1.480;2023-08-06T14:50:32;19.70;99.90
21259;DHT22;10787;53.364;-1.480;2023-08-06T14:53:17;19.60;99.90
21259;DHT22;10787;53.364;-1.480;2023-08-06T14:56:01;19.50;99.90
21259;DHT22;10787;53.364;-1.480;2023-08-06T14:58:46;19.50;99.90
21259;DHT22;10787;53.364;-1.480;2023-08-06T15:01:30;19.40;99.90
21259;DHT22;10787;53.364;-1.480;2023-08-06T15:04:14;19.50;99.90
21259;DHT22;10787;53.364;-1.480;2023-08-06T15:06:58;19.80;99.90
21259;DHT22;10787;53.364;-1.480;2023-08-06T15:09:42;19.80;99.90
21259;DHT22;10787;53.364;-1.480;2023-08-06T15:12:27;19.80;99.90
21259;DHT22;10787;53.364;-1.480;2023-08-06T15:15:12;19.60;99.90
21259;DHT22;10787;53.364;-1.480;2023-08-06T15:17:56;19.10;99.90
21259;DHT22;10787;53.364;-1.480;2023-08-06T15:20:49;18.80;99.90
21259;DHT22;10787;53.364;-1.480;2023-08-06T15:23:34;18.50;99.90
21259;DHT22;10787;53.364;-1.480;2023-08-06T15:26:18;19.40;99.90
21259;DHT22;10787;53.364;-1.480;2023-08-06T15:29:03;19.90;99.90
21259;DHT22;10787;53.364;-1.480;2023-08-06T15:31:47;20.00;99.90
21259;DHT22;10787;53.364;-1.480;2023-08-06T15:34:31;20.00;99.90
21259;DHT22;10787;53.364;-1.480;2023-08-06T15:37:15;20.10;99.90
21259;DHT22;10787;53.364;-1.480;2023-08-06T15:40:09;20.10;99.90
21259;DHT22;10787;53.364;-1.480;2023-08-06T15:42:54;19.90;99.90
21259;DHT22;10787;53.364;-1.480;2023-08-06T15:45:46;19.70;99.90
21259;DHT22;10787;53.364;-1.480;2023-08-06T15:48:36;19.80;99.90
21259;DHT22;10787;53.364;-1.480;2023-08-06T15:51:25;19.90;99.90
21259;DHT22;10787;53.364;-1.480;2023-08-06T15:54:10;20.00;99.90
21259;DHT22;10787;53.364;-1.480;2023-08-06T15:56:57;20.10;99.90
21259;DHT22;10787;53.364;-1.480;2023-08-06T15:59:41;20.20;99.90
21259;DHT22;10787;53.364;-1.480;2023-08-06T16:02:27;20.50;99.90
21259;DHT22;10787;53.364;-1.480;2023-08-06T16:05:11;20.70;99.90
21259;DHT22;10787;53.364;-1.480;2023-08-06T16:07:59;20.80;99.90
21259;DHT22;10787;53.364;-1.480;2023-08-06T16:10:45;20.90;99.90
21259;DHT22;10787;53.364;-1.480;2023-08-06T16:13:33;20.90;99.90
21259;DHT22;10787;53.364;-1.480;2023-08-06T16:16:17;20.30;99.90
21259;DHT22;10787;53.364;-1.480;2023-08-06T16:19:08;20.20;99.90
21259;DHT22;10787;53.364;-1.480;2023-08-06T16:21:52;20.10;99.90
21259;DHT22;10787;53.364;-1.480;2023-08-06T16:24:37;20.10;99.90
21259;DHT22;10787;53.364;-1.480;2023-08-06T16:27:21;19.90;99.90
21259;DHT22;10787;53.364;-1.480;2023-08-06T16:30:06;19.80;99.90
21259;DHT22;10787;53.364;-1.480;2023-08-06T16:32:56;19.80;99.90
21259;DHT22;10787;53.364;-1.480;2023-08-06T16:35:45;19.70;99.90
21259;DHT22;10787;53.364;-1.480;2023-08-06T16:38:30;19.60;99.90
21259;DHT22;10787;53.364;-1.480;2023-08-06T16:41:21;19.80;99.90
21259;DHT22;10787;53.364;-1.480;2023-08-06T16:44:05;19.80;99.90
21259;DHT22;10787;53.364;-1.480;2023-08-06T16:46:52;20.00;99.90
21259;DHT22;10787;53.364;-1.480;2023-08-06T16:49:37;20.00;99.90
21259;DHT22;10787;53.364;-1.480;2023-08-06T16:52:22;20.00;99.90
21259;DHT22;10787;53.364;-1.480;2023-08-06T16:55:07;20.00;99.90
21259;DHT22;10787;53.364;-1.480;2023-08-06T16:57:52;20.00;99.90
21259;DHT22;10787;53.364;-1.480;2023-08-06T17:00:36;19.90;99.90
21259;DHT22;10787;53.364;-1.480;2023-08-06T17:03:20;19.80;99.90
21259;DHT22;10787;53.364;-1.480;2023-08-06T17:06:05;19.70;99.90
21259;DHT22;10787;53.364;-1.480;2023-08-06T17:08:49;19.50;99.90
21259;DHT22;10787;53.364;-1.480;2023-08-06T17:11:34;19.20;99.90
21259;DHT22;10787;53.364;-1.480;2023-08-06T17:14:18;19.20;99.90
21259;DHT22;10787;53.364;-1.480;2023-08-06T17:17:03;19.00;99.90
21259;DHT22;10787;53.364;-1.480;2023-08-06T17:19:47;18.90;99.90
21259;DHT22;10787;53.364;-1.480;2023-08-06T17:22:32;18.90;99.90
21259;DHT22;10787;53.364;-1.480;2023-08-06T17:25:16;18.90;99.90